FDX19 PANC-RJBB
Flight info
| Callsign | FDX19 |
|---|---|
| Flight time | N/A |
| Altitude | 32000 |
| Route | NODLE R220 NANZA/N0478F330 R220 NATES/N0488F340 R220 NRKEY/N0482F350 R220 NUBDA/N0473F360 R220 IXE Y88 NAKTU Y12 KEC Y43 KISEI Y46 EVERT |
| Aircraft | MD11/H-SDE1E2E3FGHIJ2J3J4J5M1RWXY/LB1D1 |
Departure
| Time | 2026-05-07 11:18 |
|---|---|
| Airport | Ted Stevens Anchorage International Airport (PANC) |
Arrival
| Time | N/A |
|---|---|
| Airport | Kansai International Airport (RJBB) |
| Time | Latitude | Longitude | Altitude | Speed | Heading |
|---|---|---|---|---|---|
| 2026-05-07 10:55 | 61.18932 | -150.00249 | 129 ft | 0 kts | 256° |
| 2026-05-07 10:59 | 61.18933 | -150.00238 | 124 ft | 2 kts | 256° |
| 2026-05-07 11:00 | 61.18938 | -150.00199 | 123 ft | 3 kts | 253° |
| 2026-05-07 11:00 | 61.18944 | -150.00160 | 122 ft | 2 kts | 254° |
| 2026-05-07 11:00 | 61.18948 | -150.00130 | 121 ft | 3 kts | 267° |
| 2026-05-07 11:00 | 61.18948 | -150.00098 | 121 ft | 3 kts | 301° |
| 2026-05-07 11:01 | 61.18939 | -150.00075 | 120 ft | 3 kts | 337° |
| 2026-05-07 11:01 | 61.18921 | -150.00062 | 120 ft | 3 kts | 347° |
| 2026-05-07 11:01 | 61.18911 | -150.00057 | 120 ft | 0 kts | 346° |
| 2026-05-07 11:06 | 61.18919 | -150.00061 | 120 ft | 3 kts | 346° |
| 2026-05-07 11:07 | 61.18954 | -150.00080 | 121 ft | 9 kts | 345° |
| 2026-05-07 11:07 | 61.19035 | -150.00124 | 126 ft | 15 kts | 345° |
| 2026-05-07 11:07 | 61.19133 | -150.00192 | 123 ft | 12 kts | 329° |
| 2026-05-07 11:07 | 61.19157 | -150.00279 | 130 ft | 3 kts | 276° |
| 2026-05-07 11:08 | 61.19154 | -150.00315 | 136 ft | 3 kts | 257° |
| 2026-05-07 11:08 | 61.19146 | -150.00375 | 138 ft | 6 kts | 256° |
| 2026-05-07 11:08 | 61.19132 | -150.00489 | 141 ft | 10 kts | 256° |
| 2026-05-07 11:08 | 61.19096 | -150.00584 | 143 ft | 8 kts | 205° |
| 2026-05-07 11:09 | 61.19034 | -150.00568 | 142 ft | 13 kts | 169° |
| 2026-05-07 11:09 | 61.18916 | -150.00511 | 140 ft | 21 kts | 164° |
| 2026-05-07 11:09 | 61.18768 | -150.00423 | 137 ft | 24 kts | 165° |
| 2026-05-07 11:09 | 61.18608 | -150.00336 | 130 ft | 24 kts | 165° |
| 2026-05-07 11:10 | 61.18448 | -150.00257 | 130 ft | 23 kts | 162° |
| 2026-05-07 11:10 | 61.18301 | -150.00159 | 125 ft | 22 kts | 165° |
| 2026-05-07 11:10 | 61.18151 | -150.00079 | 124 ft | 22 kts | 166° |
| 2026-05-07 11:10 | 61.18002 | -150.00005 | 124 ft | 22 kts | 166° |
| 2026-05-07 11:11 | 61.17857 | -149.99916 | 121 ft | 21 kts | 160° |
| 2026-05-07 11:11 | 61.17723 | -149.99834 | 121 ft | 20 kts | 165° |
| 2026-05-07 11:11 | 61.17590 | -149.99762 | 124 ft | 20 kts | 165° |
| 2026-05-07 11:11 | 61.17456 | -149.99688 | 125 ft | 20 kts | 165° |
| 2026-05-07 11:12 | 61.17336 | -149.99625 | 126 ft | 16 kts | 166° |
| 2026-05-07 11:12 | 61.17237 | -149.99572 | 126 ft | 14 kts | 165° |
| 2026-05-07 11:12 | 61.17156 | -149.99522 | 128 ft | 10 kts | 154° |
| 2026-05-07 11:12 | 61.17127 | -149.99412 | 125 ft | 10 kts | 95° |
| 2026-05-07 11:13 | 61.17124 | -149.99219 | 126 ft | 16 kts | 88° |
| 2026-05-07 11:13 | 61.17121 | -149.98950 | 119 ft | 21 kts | 98° |
| 2026-05-07 11:13 | 61.17115 | -149.98652 | 123 ft | 20 kts | 89° |
| 2026-05-07 11:13 | 61.17117 | -149.98385 | 120 ft | 17 kts | 90° |
| 2026-05-07 11:14 | 61.17117 | -149.98153 | 119 ft | 15 kts | 90° |
| 2026-05-07 11:14 | 61.17117 | -149.97934 | 118 ft | 15 kts | 90° |
| 2026-05-07 11:14 | 61.17118 | -149.97701 | 114 ft | 17 kts | 89° |
| 2026-05-07 11:14 | 61.17119 | -149.97451 | 110 ft | 18 kts | 90° |
| 2026-05-07 11:15 | 61.17131 | -149.97190 | 108 ft | 19 kts | 88° |
| 2026-05-07 11:15 | 61.17127 | -149.96919 | 105 ft | 18 kts | 96° |
| 2026-05-07 11:15 | 61.17066 | -149.96808 | 104 ft | 9 kts | 178° |
| 2026-05-07 11:15 | 61.17024 | -149.96808 | 106 ft | 4 kts | 180° |
| 2026-05-07 11:16 | 61.16988 | -149.96808 | 107 ft | 7 kts | 181° |
| 2026-05-07 11:16 | 61.16917 | -149.96833 | 105 ft | 9 kts | 216° |
| 2026-05-07 11:16 | 61.16895 | -149.96942 | 106 ft | 9 kts | 249° |
| 2026-05-07 11:16 | 61.16871 | -149.97077 | 109 ft | 11 kts | 250° |
| 2026-05-07 11:17 | 61.16843 | -149.97225 | 112 ft | 12 kts | 248° |
| 2026-05-07 11:17 | 61.16810 | -149.97381 | 114 ft | 12 kts | 246° |
| 2026-05-07 11:17 | 61.16791 | -149.97520 | 115 ft | 7 kts | 263° |
| 2026-05-07 11:17 | 61.16788 | -149.97753 | 118 ft | 39 kts | 271° |
| 2026-05-07 11:18 | 61.16787 | -149.98856 | 130 ft | 112 kts | 270° |
| 2026-05-07 11:18 | 61.16784 | -150.00882 | 142 ft | 169 kts | 269° |
| 2026-05-07 11:18 | 61.16789 | -150.03478 | 468 ft | 181 kts | 270° |
| 2026-05-07 11:18 | 61.16858 | -150.06001 | 1503 ft | 175 kts | 271° |
| 2026-05-07 11:19 | 61.16910 | -150.08644 | 1984 ft | 186 kts | 269° |
| 2026-05-07 11:19 | 61.16940 | -150.11339 | 2593 ft | 189 kts | 268° |
| 2026-05-07 11:19 | 61.16968 | -150.14069 | 3182 ft | 191 kts | 268° |
| 2026-05-07 11:19 | 61.17000 | -150.16936 | 3482 ft | 208 kts | 268° |
| 2026-05-07 11:20 | 61.17030 | -150.19935 | 3960 ft | 210 kts | 268° |
| 2026-05-07 11:20 | 61.17057 | -150.23076 | 4218 ft | 229 kts | 268° |
| 2026-05-07 11:20 | 61.17078 | -150.26540 | 4390 ft | 250 kts | 268° |
| 2026-05-07 11:20 | 61.17097 | -150.30273 | 4540 ft | 269 kts | 268° |
| 2026-05-07 11:21 | 61.17111 | -150.34308 | 4845 ft | 286 kts | 268° |
| 2026-05-07 11:21 | 61.17125 | -150.38454 | 5668 ft | 290 kts | 268° |
| 2026-05-07 11:21 | 61.17216 | -150.42653 | 6454 ft | 294 kts | 275° |
| 2026-05-07 11:21 | 61.17542 | -150.46875 | 7198 ft | 298 kts | 278° |
| 2026-05-07 11:22 | 61.17922 | -150.51074 | 7948 ft | 301 kts | 280° |
| 2026-05-07 11:22 | 61.18308 | -150.55375 | 8682 ft | 304 kts | 278° |
| 2026-05-07 11:22 | 61.18674 | -150.59712 | 9411 ft | 307 kts | 278° |
| 2026-05-07 11:22 | 61.19029 | -150.64105 | 10110 ft | 312 kts | 279° |
| 2026-05-07 11:23 | 61.19395 | -150.68697 | 10265 ft | 334 kts | 278° |
| 2026-05-07 11:23 | 61.19770 | -150.73600 | 10531 ft | 349 kts | 277° |
| 2026-05-07 11:23 | 61.20138 | -150.78589 | 11227 ft | 352 kts | 277° |
| 2026-05-07 11:23 | 61.20506 | -150.83641 | 11931 ft | 355 kts | 277° |
| 2026-05-07 11:24 | 61.20873 | -150.88723 | 12616 ft | 358 kts | 277° |
| 2026-05-07 11:24 | 61.21240 | -150.93843 | 13296 ft | 360 kts | 277° |
| 2026-05-07 11:24 | 61.21611 | -150.99001 | 13934 ft | 363 kts | 277° |
| 2026-05-07 11:24 | 61.21982 | -151.04144 | 14478 ft | 366 kts | 277° |
| 2026-05-07 11:25 | 61.22352 | -151.09384 | 15041 ft | 368 kts | 277° |
| 2026-05-07 11:25 | 61.22721 | -151.14664 | 15578 ft | 371 kts | 277° |
| 2026-05-07 11:25 | 61.23091 | -151.19993 | 16113 ft | 374 kts | 277° |
| 2026-05-07 11:25 | 61.23464 | -151.25348 | 16629 ft | 376 kts | 277° |
| 2026-05-07 11:26 | 61.23838 | -151.30738 | 17166 ft | 378 kts | 277° |
| 2026-05-07 11:26 | 61.24219 | -151.36172 | 17662 ft | 381 kts | 277° |
| 2026-05-07 11:26 | 61.24592 | -151.41634 | 18163 ft | 383 kts | 277° |
| 2026-05-07 11:26 | 61.24967 | -151.47133 | 18611 ft | 386 kts | 277° |
| 2026-05-07 11:27 | 61.25338 | -151.52667 | 19032 ft | 388 kts | 276° |
| 2026-05-07 11:27 | 61.25706 | -151.58234 | 19441 ft | 390 kts | 276° |
| 2026-05-07 11:27 | 61.26076 | -151.63835 | 19843 ft | 392 kts | 276° |
| 2026-05-07 11:27 | 61.26442 | -151.69393 | 20234 ft | 395 kts | 276° |
| 2026-05-07 11:28 | 61.26819 | -151.75146 | 20639 ft | 397 kts | 276° |
| 2026-05-07 11:28 | 61.27189 | -151.80764 | 21025 ft | 399 kts | 277° |
| 2026-05-07 11:28 | 61.27571 | -151.86491 | 21415 ft | 401 kts | 276° |
| 2026-05-07 11:28 | 61.27948 | -151.92268 | 21827 ft | 404 kts | 276° |
| 2026-05-07 11:29 | 61.28300 | -151.98071 | 22222 ft | 405 kts | 274° |
| 2026-05-07 11:29 | 61.28468 | -152.03931 | 22653 ft | 407 kts | 270° |
| 2026-05-07 11:29 | 61.28512 | -152.09831 | 23074 ft | 409 kts | 269° |
| 2026-05-07 11:29 | 61.28517 | -152.15773 | 23479 ft | 412 kts | 269° |
| 2026-05-07 11:30 | 61.28519 | -152.21744 | 23868 ft | 414 kts | 269° |
| 2026-05-07 11:30 | 61.28525 | -152.27740 | 24230 ft | 416 kts | 269° |
| 2026-05-07 11:30 | 61.28535 | -152.33698 | 24607 ft | 418 kts | 269° |
| 2026-05-07 11:30 | 61.28551 | -152.39775 | 24974 ft | 420 kts | 269° |
| 2026-05-07 11:31 | 61.28570 | -152.45869 | 25367 ft | 422 kts | 269° |
| 2026-05-07 11:31 | 61.28590 | -152.52007 | 25756 ft | 425 kts | 270° |
| 2026-05-07 11:31 | 61.28611 | -152.58159 | 26109 ft | 427 kts | 270° |
| 2026-05-07 11:31 | 61.28630 | -152.64366 | 26467 ft | 429 kts | 270° |
| 2026-05-07 11:32 | 61.28656 | -152.76845 | 27189 ft | 434 kts | 270° |